createdAt,value
2022-11-07T00:02:13.129Z,18.80
2022-11-07T00:05:40.152Z,18.80
2022-11-07T00:09:02.340Z,18.80
2022-11-07T00:12:24.607Z,18.70
2022-11-07T00:15:46.920Z,18.80
2022-11-07T00:19:10.105Z,18.70
2022-11-07T00:22:32.368Z,18.80
2022-11-07T00:25:54.611Z,18.80
2022-11-07T00:29:19.550Z,18.70
2022-11-07T00:32:41.784Z,18.70
2022-11-07T00:36:04.605Z,18.70
2022-11-07T00:39:26.820Z,18.80
2022-11-07T00:42:49.177Z,18.70
2022-11-07T00:46:13.512Z,18.70
2022-11-07T00:49:35.745Z,18.70
2022-11-07T00:52:58.035Z,18.70
2022-11-07T00:56:23.159Z,18.70
2022-11-07T00:59:45.417Z,18.70
2022-11-07T01:03:26.039Z,18.80
2022-11-07T01:06:48.388Z,18.70
2022-11-07T01:10:10.600Z,18.70
2022-11-07T01:13:33.645Z,18.70
2022-11-07T01:16:55.921Z,18.70
2022-11-07T01:20:18.181Z,18.70
2022-11-07T01:23:40.379Z,18.70
2022-11-07T01:27:02.633Z,18.70
2022-11-07T01:30:24.884Z,18.70
2022-11-07T01:33:47.489Z,18.70
2022-11-07T01:37:09.721Z,18.70
2022-11-07T01:40:33.845Z,18.70
2022-11-07T01:43:58.893Z,18.70
2022-11-07T01:47:23.395Z,18.70
2022-11-07T01:50:45.603Z,18.70
2022-11-07T01:54:08.583Z,18.70
2022-11-07T01:57:46.984Z,18.70
2022-11-07T02:01:09.209Z,18.70
2022-11-07T02:04:31.851Z,18.60
2022-11-07T02:07:54.868Z,18.70
2022-11-07T02:11:17.980Z,18.70
2022-11-07T02:14:42.357Z,18.70
2022-11-07T02:18:04.929Z,18.70
2022-11-07T02:21:44.031Z,18.60
2022-11-07T02:25:15.686Z,18.60
2022-11-07T02:28:39.444Z,18.60
2022-11-07T02:32:02.740Z,18.70
2022-11-07T02:35:36.710Z,18.60
2022-11-07T02:39:00.373Z,18.70
2022-11-07T02:42:23.739Z,18.60
2022-11-07T02:45:48.283Z,18.60
2022-11-07T02:49:10.504Z,18.60
2022-11-07T02:52:32.670Z,18.60
2022-11-07T02:55:54.904Z,18.60
2022-11-07T02:59:17.092Z,18.60
2022-11-07T03:02:40.062Z,18.60
2022-11-07T03:06:02.524Z,18.60
2022-11-07T03:09:24.749Z,18.60
2022-11-07T03:12:46.994Z,18.60
2022-11-07T03:16:11.191Z,18.60
2022-11-07T03:19:33.388Z,18.60
2022-11-07T03:22:55.652Z,18.60
2022-11-07T03:26:17.943Z,18.60
2022-11-07T03:29:40.192Z,18.60
2022-11-07T03:33:02.584Z,18.60
2022-11-07T03:36:24.827Z,18.60
2022-11-07T03:39:47.083Z,18.60
2022-11-07T03:43:09.291Z,18.60
2022-11-07T03:46:31.511Z,18.60
2022-11-07T03:49:53.734Z,18.60
2022-11-07T03:53:19.455Z,18.60
2022-11-07T03:56:44.593Z,18.60
2022-11-07T04:00:07.390Z,18.60
2022-11-07T04:03:34.060Z,18.60
2022-11-07T04:06:56.348Z,18.60
2022-11-07T04:10:18.674Z,18.60
2022-11-07T04:14:03.845Z,18.60
2022-11-07T04:17:26.964Z,18.60
2022-11-07T04:20:49.156Z,18.60
2022-11-07T04:24:11.365Z,18.60
2022-11-07T04:27:46.871Z,18.60
2022-11-07T04:31:09.025Z,18.60
2022-11-07T04:34:31.177Z,18.60
2022-11-07T04:37:53.519Z,18.60
2022-11-07T04:41:20.638Z,18.60
2022-11-07T04:44:43.051Z,18.50
2022-11-07T04:48:06.077Z,18.60
2022-11-07T04:51:28.302Z,18.50
2022-11-07T04:54:50.479Z,18.50
2022-11-07T04:58:12.727Z,18.50
2022-11-07T05:01:35.013Z,18.60
2022-11-07T05:04:57.263Z,18.60
2022-11-07T05:08:19.477Z,18.60
2022-11-07T05:11:41.695Z,18.50
2022-11-07T05:15:04.251Z,18.50
2022-11-07T05:18:26.478Z,18.50
2022-11-07T05:22:08.627Z,18.60
2022-11-07T05:25:30.880Z,18.60
2022-11-07T05:28:53.102Z,18.60
2022-11-07T05:32:15.490Z,18.60
2022-11-07T05:35:38.219Z,18.50
2022-11-07T05:39:00.468Z,18.50
2022-11-07T05:42:22.681Z,18.50
2022-11-07T05:45:44.898Z,18.50
2022-11-07T05:49:07.160Z,18.50
2022-11-07T05:52:29.455Z,18.50
2022-11-07T05:55:52.590Z,18.60
2022-11-07T05:59:15.196Z,18.50
2022-11-07T06:02:37.526Z,18.50
2022-11-07T06:06:00.051Z,18.50
2022-11-07T06:09:22.247Z,18.50
2022-11-07T06:12:44.469Z,18.50
2022-11-07T06:16:07.189Z,18.60
2022-11-07T06:19:29.441Z,18.50
2022-11-07T06:22:51.680Z,18.50
2022-11-07T06:26:14.124Z,18.50
2022-11-07T06:29:36.299Z,18.50
2022-11-07T06:33:07.156Z,18.60
2022-11-07T06:36:29.314Z,18.50
2022-11-07T06:39:51.593Z,18.60
2022-11-07T06:43:16.218Z,18.60
2022-11-07T06:46:38.711Z,18.60
2022-11-07T06:50:00.943Z,18.60
2022-11-07T06:53:23.184Z,18.60
2022-11-07T06:56:45.411Z,18.70
2022-11-07T07:00:08.852Z,18.70
2022-11-07T07:03:31.332Z,18.70
2022-11-07T07:06:53.597Z,18.70
2022-11-07T07:10:16.275Z,18.70
2022-11-07T07:13:38.863Z,18.70
2022-11-07T07:17:01.057Z,18.70
2022-11-07T07:20:23.567Z,18.80
2022-11-07T07:23:45.753Z,18.80
2022-11-07T07:27:07.993Z,18.80
2022-11-07T07:30:30.351Z,18.80
2022-11-07T07:33:52.860Z,18.80
2022-11-07T07:37:15.136Z,18.80
2022-11-07T07:40:37.355Z,18.70
2022-11-07T07:43:59.593Z,18.70
2022-11-07T07:47:21.878Z,18.70
2022-11-07T07:50:44.195Z,18.70
2022-11-07T07:54:06.563Z,18.70
2022-11-07T07:57:29.968Z,18.70
2022-11-07T08:00:53.930Z,18.70
2022-11-07T08:04:16.273Z,18.70
2022-11-07T08:07:46.078Z,18.70
2022-11-07T08:11:08.947Z,18.80
2022-11-07T08:14:31.426Z,18.80
2022-11-07T08:17:53.811Z,18.90
2022-11-07T08:21:16.072Z,18.90
2022-11-07T08:24:38.305Z,18.90
2022-11-07T08:28:00.815Z,18.80
2022-11-07T08:31:23.046Z,18.80
2022-11-07T08:34:45.260Z,18.80
2022-11-07T08:38:07.477Z,18.80
2022-11-07T08:41:29.804Z,18.80
2022-11-07T08:44:52.018Z,18.80
2022-11-07T08:48:15.173Z,18.80
2022-11-07T08:51:37.377Z,18.80
2022-11-07T08:54:59.628Z,18.80
2022-11-07T08:58:25.887Z,18.90
2022-11-07T09:02:26.584Z,18.90
2022-11-07T09:05:33.589Z,19.00
2022-11-07T09:08:55.884Z,19.00
2022-11-07T09:12:18.260Z,19.00
2022-11-07T09:15:40.600Z,19.00
2022-11-07T09:19:03.745Z,19.00
2022-11-07T09:22:25.997Z,19.00
2022-11-07T09:25:48.436Z,19.10
2022-11-07T09:29:10.652Z,19.10
2022-11-07T09:32:46.134Z,19.20
2022-11-07T09:36:08.723Z,19.30
2022-11-07T09:39:31.130Z,19.30
2022-11-07T09:43:05.617Z,19.30
2022-11-07T09:46:42.769Z,19.30
2022-11-07T09:50:42.198Z,19.30
2022-11-07T09:54:18.933Z,19.40
2022-11-07T09:57:41.604Z,19.50
2022-11-07T10:01:06.956Z,19.40
2022-11-07T10:04:29.715Z,19.50
2022-11-07T10:08:09.561Z,19.50
2022-11-07T10:11:59.558Z,19.50
2022-11-07T10:15:33.337Z,19.50
2022-11-07T10:19:16.287Z,19.50
2022-11-07T10:23:06.286Z,19.50
2022-11-07T10:26:30.500Z,19.40
2022-11-07T10:29:54.976Z,19.40
2022-11-07T10:33:24.406Z,19.30
2022-11-07T10:36:46.663Z,19.40
2022-11-07T10:40:18.411Z,19.30
2022-11-07T10:43:41.807Z,19.30
2022-11-07T10:47:19.023Z,19.30
2022-11-07T10:50:50.202Z,19.30
2022-11-07T10:54:32.663Z,19.30
2022-11-07T10:58:02.152Z,19.30
2022-11-07T11:01:27.908Z,19.20
2022-11-07T11:04:54.349Z,19.20
2022-11-07T11:08:22.444Z,19.20
2022-11-07T11:11:50.242Z,19.20
2022-11-07T11:15:15.189Z,19.20
2022-11-07T11:18:37.487Z,19.20
2022-11-07T11:22:00.105Z,19.20
2022-11-07T11:25:23.781Z,19.20
2022-11-07T11:29:09.154Z,19.20
2022-11-07T11:32:44.674Z,19.20
2022-11-07T11:36:16.310Z,19.30
2022-11-07T11:39:47.805Z,19.30
2022-11-07T11:43:23.176Z,19.30
2022-11-07T11:46:52.710Z,19.30
2022-11-07T11:50:22.913Z,19.40
2022-11-07T11:53:45.284Z,19.40
2022-11-07T11:57:42.448Z,19.40
2022-11-07T12:01:33.540Z,19.40
2022-11-07T12:05:01.883Z,19.40
2022-11-07T12:09:04.730Z,19.40
2022-11-07T12:13:10.459Z,19.40
2022-11-07T12:16:59.928Z,19.40
2022-11-07T12:20:28.773Z,19.50
2022-11-07T12:24:09.389Z,19.50
2022-11-07T12:28:00.528Z,19.50
2022-11-07T12:31:34.144Z,19.40
2022-11-07T12:35:17.703Z,19.30
2022-11-07T12:39:03.387Z,19.30
2022-11-07T12:42:31.558Z,19.20
2022-11-07T12:46:14.463Z,19.20
2022-11-07T12:50:13.576Z,19.20
2022-11-07T12:53:47.953Z,19.20
2022-11-07T12:57:32.117Z,19.20
2022-11-07T13:00:55.221Z,19.20
2022-11-07T13:04:35.449Z,19.20
2022-11-07T13:08:04.048Z,19.20
2022-11-07T13:11:48.718Z,19.30
2022-11-07T13:15:13.026Z,19.20
2022-11-07T13:18:35.446Z,19.20
2022-11-07T13:22:07.947Z,19.20
2022-11-07T13:25:32.370Z,19.10
2022-11-07T13:28:59.855Z,19.20
2022-11-07T13:32:22.065Z,19.20
2022-11-07T13:35:54.797Z,19.20
2022-11-07T13:39:18.769Z,19.20
2022-11-07T13:42:43.835Z,19.20
2022-11-07T13:46:10.346Z,19.10
2022-11-07T13:49:44.345Z,19.20
2022-11-07T13:53:17.197Z,19.20
2022-11-07T13:57:23.314Z,19.10
2022-11-07T14:00:45.621Z,19.20
2022-11-07T14:04:19.953Z,19.20
2022-11-07T14:07:46.517Z,19.20
2022-11-07T14:11:23.277Z,19.20
2022-11-07T14:14:47.264Z,19.20
2022-11-07T14:18:17.285Z,19.20
2022-11-07T14:21:39.796Z,19.30
2022-11-07T14:25:02.083Z,19.20
2022-11-07T14:28:24.952Z,19.20
2022-11-07T14:31:47.426Z,19.20
2022-11-07T14:35:09.716Z,19.20
2022-11-07T14:38:31.978Z,19.20
2022-11-07T14:41:59.871Z,19.20
2022-11-07T14:45:55.038Z,19.20
2022-11-07T14:49:06.827Z,19.10
2022-11-07T14:52:39.218Z,19.10
2022-11-07T14:56:08.344Z,19.10
2022-11-07T14:59:33.521Z,19.10
2022-11-07T15:02:56.469Z,19.10
2022-11-07T15:06:23.013Z,19.10
2022-11-07T15:09:45.247Z,19.00
2022-11-07T15:13:25.010Z,19.00
2022-11-07T15:16:50.364Z,19.00
2022-11-07T15:20:35.487Z,19.00
2022-11-07T15:23:59.628Z,19.00
2022-11-07T15:27:40.301Z,19.00
2022-11-07T15:31:02.618Z,19.00
2022-11-07T15:34:45.550Z,19.00
2022-11-07T15:38:21.386Z,19.00
2022-11-07T15:41:43.725Z,18.90
2022-11-07T15:45:06.295Z,19.00
2022-11-07T15:48:41.218Z,18.90
2022-11-07T15:52:03.789Z,18.90
2022-11-07T15:55:26.316Z,19.00
2022-11-07T15:58:49.316Z,19.00
2022-11-07T16:02:17.875Z,18.90
2022-11-07T16:05:41.128Z,18.90
2022-11-07T16:09:04.760Z,18.90
2022-11-07T16:12:26.959Z,18.90
2022-11-07T16:15:53.057Z,18.90
2022-11-07T16:19:21.860Z,18.90
2022-11-07T16:22:45.236Z,18.90
2022-11-07T16:26:09.366Z,18.90
2022-11-07T16:29:32.127Z,18.90
2022-11-07T16:32:54.385Z,18.90
2022-11-07T16:36:21.666Z,18.90
2022-11-07T16:39:44.453Z,18.90
2022-11-07T16:43:06.724Z,18.80
2022-11-07T16:46:34.373Z,18.80
2022-11-07T16:49:56.600Z,18.80
2022-11-07T16:53:20.068Z,18.80
2022-11-07T16:56:42.964Z,18.80
2022-11-07T17:00:05.760Z,18.80
2022-11-07T17:03:29.317Z,18.80
2022-11-07T17:06:51.542Z,18.80
2022-11-07T17:10:17.029Z,18.80
2022-11-07T17:13:39.540Z,18.80
2022-11-07T17:17:01.743Z,18.80
2022-11-07T17:20:49.298Z,18.80
2022-11-07T17:24:07.324Z,18.80
2022-11-07T17:27:29.537Z,18.80
2022-11-07T17:30:51.901Z,18.80
2022-11-07T17:34:14.363Z,18.80
2022-11-07T17:37:36.706Z,18.80
2022-11-07T17:41:17.091Z,18.80
2022-11-07T17:44:40.047Z,18.80
2022-11-07T17:48:02.267Z,18.90
2022-11-07T17:51:28.213Z,18.90
2022-11-07T17:54:50.521Z,18.90
2022-11-07T17:58:12.850Z,18.90
2022-11-07T18:01:37.553Z,19.00
2022-11-07T18:04:59.937Z,19.00
2022-11-07T18:08:38.457Z,19.00
2022-11-07T18:12:04.963Z,19.10
2022-11-07T18:15:27.258Z,19.10
2022-11-07T18:18:49.711Z,19.10
2022-11-07T18:22:11.910Z,19.10
2022-11-07T18:25:34.295Z,19.10
2022-11-07T18:29:13.401Z,19.20
2022-11-07T18:32:36.823Z,19.10
2022-11-07T18:36:01.131Z,19.10
2022-11-07T18:39:24.077Z,19.20
2022-11-07T18:42:46.340Z,19.10
2022-11-07T18:46:11.729Z,19.10
2022-11-07T18:49:34.062Z,19.20
2022-11-07T18:52:56.261Z,19.20
2022-11-07T18:56:19.075Z,19.20
2022-11-07T18:59:41.305Z,19.20
2022-11-07T19:03:03.557Z,19.20
2022-11-07T19:06:27.517Z,19.20
2022-11-07T19:09:49.799Z,19.20
2022-11-07T19:13:12.217Z,19.20
2022-11-07T19:16:34.440Z,19.20
2022-11-07T19:19:56.664Z,19.20
2022-11-07T19:23:19.116Z,19.30
2022-11-07T19:26:41.760Z,19.20
2022-11-07T19:30:08.256Z,19.20
2022-11-07T19:33:30.701Z,19.20
2022-11-07T19:36:52.932Z,19.30
2022-11-07T19:40:15.294Z,19.20
2022-11-07T19:43:38.763Z,19.30
2022-11-07T19:47:01.048Z,19.20
2022-11-07T19:50:24.029Z,19.20
2022-11-07T19:53:46.376Z,19.30
2022-11-07T19:57:08.624Z,19.30
2022-11-07T20:00:31.061Z,19.20
2022-11-07T20:03:54.679Z,19.20
2022-11-07T20:07:17.046Z,19.20
2022-11-07T20:10:45.823Z,19.20
2022-11-07T20:14:08.424Z,19.20
2022-11-07T20:17:30.721Z,19.20
2022-11-07T20:21:00.777Z,19.20
2022-11-07T20:24:23.156Z,19.20
2022-11-07T20:27:45.456Z,19.20
2022-11-07T20:31:12.985Z,19.20
2022-11-07T20:34:35.253Z,19.20
2022-11-07T20:37:57.464Z,19.20
2022-11-07T20:41:22.987Z,19.20
2022-11-07T20:44:45.240Z,19.20
2022-11-07T20:48:07.628Z,19.20
2022-11-07T20:51:30.169Z,19.20
2022-11-07T20:54:52.381Z,19.20
2022-11-07T20:58:14.696Z,19.20
2022-11-07T21:01:37.994Z,19.20
2022-11-07T21:05:17.095Z,19.20
2022-11-07T21:08:41.672Z,19.20
2022-11-07T21:12:04.049Z,19.20
2022-11-07T21:15:26.324Z,19.20
2022-11-07T21:18:49.154Z,19.20
2022-11-07T21:22:11.391Z,19.20
2022-11-07T21:25:44.507Z,19.20
2022-11-07T21:29:08.312Z,19.20
2022-11-07T21:32:30.782Z,19.20
2022-11-07T21:35:53.563Z,19.20
2022-11-07T21:39:16.313Z,19.20
2022-11-07T21:42:38.779Z,19.20
2022-11-07T21:46:11.457Z,19.20
2022-11-07T21:49:33.685Z,19.20
2022-11-07T21:52:56.043Z,19.10
2022-11-07T21:56:25.007Z,19.20
2022-11-07T21:59:47.279Z,19.20
2022-11-07T22:03:09.464Z,19.20
2022-11-07T22:06:34.209Z,19.10
2022-11-07T22:09:56.451Z,19.10
2022-11-07T22:13:19.504Z,19.10
2022-11-07T22:16:42.260Z,19.10
2022-11-07T22:20:05.540Z,19.10
2022-11-07T22:23:31.176Z,19.00
2022-11-07T22:26:57.176Z,19.00
2022-11-07T22:30:19.834Z,19.00
2022-11-07T22:33:42.342Z,19.00
2022-11-07T22:37:04.600Z,19.00
2022-11-07T22:40:26.852Z,19.00
2022-11-07T22:43:49.861Z,19.00
2022-11-07T22:47:12.077Z,19.00
2022-11-07T22:50:34.404Z,18.90
2022-11-07T22:53:58.643Z,18.90
2022-11-07T22:57:20.940Z,18.90
2022-11-07T23:00:43.261Z,18.90
2022-11-07T23:04:07.022Z,18.90
2022-11-07T23:07:29.238Z,18.90
2022-11-07T23:11:45.461Z,18.90
2022-11-07T23:15:01.075Z,18.90
2022-11-07T23:18:24.046Z,18.90
2022-11-07T23:21:46.435Z,18.90
2022-11-07T23:25:08.692Z,18.80
2022-11-07T23:28:30.952Z,18.90
2022-11-07T23:31:53.350Z,18.90
2022-11-07T23:35:15.640Z,18.90
2022-11-07T23:38:37.897Z,18.80
2022-11-07T23:42:00.099Z,18.80
2022-11-07T23:45:40.761Z,18.80
2022-11-07T23:49:21.576Z,18.90
2022-11-07T23:52:43.771Z,18.90
2022-11-07T23:56:07.137Z,18.90
2022-11-07T23:59:47.812Z,18.80
